Time;durP1;ratioP1;P1;durP2;ratioP2;P2;SDS_P1;SDS_P2;PMS_P1;PMS_P2;Temp;Humidity;BMP_temperature;BMP_pressure;BME280_temperature;BME280_humidity;BME280_pressure;Samples;Min_cycle;Max_cycle;Signal;HPM_P1;HPM_P2
2023/08/09 00:01:02;;;;;;;5.10;1.80;;;;;;;;;;6275082;22;20024;-62
2023/08/09 00:03:29;;;;;;;5.60;2.03;;;;;;;;;;6248628;22;20016;-61
2023/08/09 00:05:55;;;;;;;5.75;2.15;;;;;;;;;;6248358;22;20023;-61
2023/08/09 00:08:21;;;;;;;4.82;1.80;;;;;;;;;;6275346;22;20106;-61
2023/08/09 00:10:47;;;;;;;7.22;2.45;;;;;;;;;;6274830;22;20020;-61
2023/08/09 00:13:13;;;;;;;6.53;2.10;;;;;;;;;;6222624;22;20023;-61
2023/08/09 00:15:39;;;;;;;4.72;1.90;;;;;;;;;;6247741;22;20428;-61
2023/08/09 00:18:05;;;;;;;5.15;1.73;;;;;;;;;;6274974;22;20012;-62
2023/08/09 00:20:32;;;;;;;4.28;2.00;;;;;;;;;;6248470;22;20023;-61
2023/08/09 00:22:58;;;;;;;4.55;1.77;;;;;;;;;;6275700;22;20102;-62
2023/08/09 00:25:24;;;;;;;3.20;1.77;;;;;;;;;;6248079;22;20329;-61
2023/08/09 00:27:50;;;;;;;5.43;2.20;;;;;;;;;;6274858;22;20055;-61
2023/08/09 00:30:16;;;;;;;6.68;2.33;;;;;;;;;;6247725;22;20102;-61
2023/08/09 00:32:43;;;;;;;11.32;2.53;;;;;;;;;;6222240;22;20078;-61
2023/08/09 00:35:09;;;;;;;5.22;2.30;;;;;;;;;;6222381;22;20345;-62
2023/08/09 00:37:36;;;;;;;4.78;2.60;;;;;;;;;;6275066;22;20011;-62
2023/08/09 00:40:07;;;;;;;5.63;2.88;;;;;;;;;;6275104;22;20090;-66
2023/08/09 00:42:33;;;;;;;6.45;3.05;;;;;;;;;;6247706;22;20065;-61
2023/08/09 00:44:59;;;;;;;6.15;3.45;;;;;;;;;;6275294;22;20016;-62
2023/08/09 00:47:26;;;;;;;7.60;3.10;;;;;;;;;;6247110;22;20024;-62
2023/08/09 00:49:52;;;;;;;6.75;2.92;;;;;;;;;;6248337;22;20122;-62
2023/08/09 00:52:20;;;;;;;6.38;2.80;;;;;;;;;;6274375;22;20352;-61
2023/08/09 00:54:48;;;;;;;5.57;3.50;;;;;;;;;;6248375;22;20344;-62
2023/08/09 00:57:14;;;;;;;5.55;3.30;;;;;;;;;;6244637;22;20020;-62
2023/08/09 00:59:40;;;;;;;8.43;3.60;;;;;;;;;;6222548;22;20069;-63
2023/08/09 01:02:09;;;;;;;7.97;3.50;;;;;;;;;;6247919;22;20023;-63
2023/08/09 01:04:36;;;;;;;8.25;3.92;;;;;;;;;;6248259;22;20085;-61
2023/08/09 01:07:11;;;;;;;6.10;3.33;;;;;;;;;;6274901;22;20379;-67
2023/08/09 01:09:42;;;;;;;7.60;3.80;;;;;;;;;;6248133;22;20020;-62
2023/08/09 01:12:11;;;;;;;7.78;3.50;;;;;;;;;;6221570;22;20095;-62
2023/08/09 01:14:40;;;;;;;8.18;4.10;;;;;;;;;;6222832;22;20112;-62
2023/08/09 01:17:06;;;;;;;5.78;3.45;;;;;;;;;;6222006;22;20090;-61
2023/08/09 01:19:38;;;;;;;10.05;4.07;;;;;;;;;;6222850;22;20425;-62
2023/08/09 01:22:07;;;;;;;6.70;3.53;;;;;;;;;;6222424;22;20016;-62
2023/08/09 01:24:34;;;;;;;5.97;3.80;;;;;;;;;;6222472;22;20074;-62
2023/08/09 01:27:00;;;;;;;9.88;5.20;;;;;;;;;;6274217;22;20437;-61
2023/08/09 01:29:26;;;;;;;8.23;4.15;;;;;;;;;;6221660;22;20324;-62
2023/08/09 01:31:52;;;;;;;6.70;3.97;;;;;;;;;;6275085;22;20333;-61
2023/08/09 01:34:19;;;;;;;6.25;4.10;;;;;;;;;;6274806;22;20026;-62
2023/08/09 01:36:50;;;;;;;9.57;4.80;;;;;;;;;;6247394;22;20069;-62
2023/08/09 01:39:19;;;;;;;8.43;4.45;;;;;;;;;;6222124;22;20037;-62
2023/08/09 01:41:48;;;;;;;6.93;4.00;;;;;;;;;;6222452;22;20073;-62
2023/08/09 01:44:14;;;;;;;12.75;4.82;;;;;;;;;;6222817;22;20352;-62
2023/08/09 01:46:41;;;;;;;6.90;4.07;;;;;;;;;;6223896;22;20081;-62
2023/08/09 01:49:11;;;;;;;7.60;4.20;;;;;;;;;;6276276;22;20016;-62
2023/08/09 01:51:37;;;;;;;6.15;4.20;;;;;;;;;;6249859;22;20023;-62
2023/08/09 01:54:03;;;;;;;6.38;3.78;;;;;;;;;;6223010;22;20015;-67
2023/08/09 01:56:30;;;;;;;9.23;4.70;;;;;;;;;;6223360;22;20045;-62
2023/08/09 01:58:56;;;;;;;5.75;4.10;;;;;;;;;;6223730;22;20026;-62
2023/08/09 02:01:23;;;;;;;6.75;3.83;;;;;;;;;;6276288;22;20030;-61
2023/08/09 02:03:49;;;;;;;8.73;4.65;;;;;;;;;;6224254;22;20015;-61
2023/08/09 02:06:16;;;;;;;6.00;4.10;;;;;;;;;;6275492;22;20095;-62
2023/08/09 02:08:42;;;;;;;7.97;4.30;;;;;;;;;;6276057;22;20012;-62
2023/08/09 02:11:08;;;;;;;7.00;4.03;;;;;;;;;;6249244;22;20090;-62
2023/08/09 02:13:35;;;;;;;8.18;3.83;;;;;;;;;;6276586;22;20030;-61
2023/08/09 02:16:04;;;;;;;6.18;4.22;;;;;;;;;;6276584;22;20063;-62
2023/08/09 02:18:31;;;;;;;5.97;3.87;;;;;;;;;;6249388;22;20094;-62
2023/08/09 02:20:59;;;;;;;10.20;3.80;;;;;;;;;;6249386;22;20030;-62
2023/08/09 02:23:25;;;;;;;8.88;4.13;;;;;;;;;;6223098;22;20019;-61
2023/08/09 02:25:55;;;;;;;6.50;3.67;;;;;;;;;;6249077;22;20066;-62
2023/08/09 02:28:21;;;;;;;6.13;3.78;;;;;;;;;;6249004;22;20027;-63
2023/08/09 02:30:49;;;;;;;7.15;3.83;;;;;;;;;;6276249;22;20052;-62
2023/08/09 02:33:15;;;;;;;8.60;4.20;;;;;;;;;;6276123;22;20055;-62
2023/08/09 02:35:52;;;;;;;9.68;3.85;;;;;;;;;;6248388;22;20543;-61
2023/08/09 02:38:18;;;;;;;7.78;3.97;;;;;;;;;;6275502;22;20016;-61
2023/08/09 02:40:44;;;;;;;6.28;4.25;;;;;;;;;;6276021;22;20015;-61
2023/08/09 02:43:10;;;;;;;6.80;4.25;;;;;;;;;;6274906;22;20520;-62
2023/08/09 02:45:37;;;;;;;7.85;3.63;;;;;;;;;;6248759;22;20066;-61
2023/08/09 02:48:03;;;;;;;6.00;4.28;;;;;;;;;;6248683;22;20106;-66
2023/08/09 02:50:29;;;;;;;6.22;4.00;;;;;;;;;;6276085;22;20037;-61
2023/08/09 02:52:55;;;;;;;7.15;3.70;;;;;;;;;;6275354;22;20098;-61
2023/08/09 02:55:21;;;;;;;8.00;4.10;;;;;;;;;;6274687;22;20020;-61
2023/08/09 02:57:47;;;;;;;8.60;5.20;;;;;;;;;;6275836;22;20012;-61
2023/08/09 03:00:16;;;;;;;6.45;4.13;;;;;;;;;;6275525;22;20020;-62
2023/08/09 03:02:42;;;;;;;7.95;3.85;;;;;;;;;;6248626;22;20486;-61
2023/08/09 03:05:09;;;;;;;6.93;4.38;;;;;;;;;;6245754;22;20078;-62
2023/08/09 03:07:36;;;;;;;5.35;4.20;;;;;;;;;;6247824;22;20116;-62
2023/08/09 03:10:03;;;;;;;6.05;4.05;;;;;;;;;;6223222;22;20082;-64
2023/08/09 03:12:29;;;;;;;7.45;4.43;;;;;;;;;;6248842;22;20070;-63
2023/08/09 03:14:55;;;;;;;6.10;4.40;;;;;;;;;;6248151;22;20103;-62
2023/08/09 03:17:21;;;;;;;6.45;4.18;;;;;;;;;;6222393;22;20051;-62
2023/08/09 03:19:49;;;;;;;6.55;3.63;;;;;;;;;;6248640;22;20069;-61
2023/08/09 03:22:16;;;;;;;5.22;3.90;;;;;;;;;;6222450;22;20103;-62
2023/08/09 03:24:42;;;;;;;8.68;3.90;;;;;;;;;;6275307;22;20346;-61
2023/08/09 03:27:08;;;;;;;6.90;4.45;;;;;;;;;;6248114;22;20059;-61
2023/08/09 03:29:34;;;;;;;6.03;4.28;;;;;;;;;;6223464;22;20024;-62
2023/08/09 03:32:00;;;;;;;5.50;3.88;;;;;;;;;;6275297;22;20399;-62
2023/08/09 03:34:26;;;;;;;7.22;4.22;;;;;;;;;;6275258;22;20042;-62
2023/08/09 03:36:52;;;;;;;7.38;4.55;;;;;;;;;;6275035;22;20015;-61
2023/08/09 03:39:18;;;;;;;5.40;3.92;;;;;;;;;;6248191;22;20020;-61
2023/08/09 03:41:45;;;;;;;4.57;3.58;;;;;;;;;;6248052;22;20024;-61
2023/08/09 03:44:11;;;;;;;7.07;4.50;;;;;;;;;;6222795;22;20459;-62
2023/08/09 03:46:37;;;;;;;8.27;4.53;;;;;;;;;;6274921;22;20090;-62
2023/08/09 03:49:03;;;;;;;6.38;4.30;;;;;;;;;;6247399;22;20015;-67
2023/08/09 03:51:29;;;;;;;8.40;4.00;;;;;;;;;;6274851;22;20019;-61
2023/08/09 03:53:55;;;;;;;5.70;4.05;;;;;;;;;;6275312;22;20077;-62
2023/08/09 03:56:21;;;;;;;7.18;4.60;;;;;;;;;;6274501;22;20476;-62
2023/08/09 03:58:47;;;;;;;6.38;3.83;;;;;;;;;;6223213;22;20082;-62
2023/08/09 04:01:14;;;;;;;9.10;3.90;;;;;;;;;;6274384;22;20383;-64
2023/08/09 04:03:40;;;;;;;6.63;4.20;;;;;;;;;;6275317;22;20344;-63
2023/08/09 04:06:06;;;;;;;6.97;3.38;;;;;;;;;;6247292;22;20027;-62
2023/08/09 04:08:32;;;;;;;8.20;4.32;;;;;;;;;;6275499;22;20027;-64
2023/08/09 04:10:59;;;;;;;7.20;3.83;;;;;;;;;;6248525;22;20031;-63
2023/08/09 04:13:26;;;;;;;7.68;4.32;;;;;;;;;;6222292;22;20440;-64
2023/08/09 04:15:52;;;;;;;7.50;4.40;;;;;;;;;;6275350;22;20023;-65
2023/08/09 04:18:18;;;;;;;6.70;3.75;;;;;;;;;;6247573;22;20012;-63
2023/08/09 04:20:45;;;;;;;5.90;3.88;;;;;;;;;;6274478;22;20100;-63
2023/08/09 04:23:12;;;;;;;5.28;3.58;;;;;;;;;;6247986;22;20039;-62
2023/08/09 04:25:38;;;;;;;5.35;4.05;;;;;;;;;;6248200;22;20016;-62
2023/08/09 04:28:05;;;;;;;6.95;3.97;;;;;;;;;;6274587;22;20436;-62
2023/08/09 04:30:32;;;;;;;5.22;3.88;;;;;;;;;;6222551;22;20390;-62
2023/08/09 04:33:00;;;;;;;8.30;4.15;;;;;;;;;;6247606;22;20505;-62
2023/08/09 04:35:26;;;;;;;7.28;3.65;;;;;;;;;;6274191;22;20383;-62
2023/08/09 04:37:52;;;;;;;6.43;3.95;;;;;;;;;;6275128;22;20024;-63
2023/08/09 04:40:18;;;;;;;5.55;3.90;;;;;;;;;;6247627;22;20328;-62
2023/08/09 04:42:47;;;;;;;6.82;3.90;;;;;;;;;;6275017;22;20030;-63
2023/08/09 04:45:13;;;;;;;7.85;4.07;;;;;;;;;;6247936;22;20023;-63
2023/08/09 04:47:39;;;;;;;8.15;4.13;;;;;;;;;;6274374;22;20461;-62
2023/08/09 04:50:07;;;;;;;5.60;3.70;;;;;;;;;;6247138;22;20019;-63
2023/08/09 04:52:34;;;;;;;6.88;4.10;;;;;;;;;;6247692;22;20089;-63
2023/08/09 04:55:00;;;;;;;6.22;3.70;;;;;;;;;;6275073;22;20019;-62
2023/08/09 04:57:26;;;;;;;6.05;3.65;;;;;;;;;;6274333;22;20051;-62
2023/08/09 04:59:52;;;;;;;6.93;3.63;;;;;;;;;;6275033;22;20019;-63
2023/08/09 05:02:19;;;;;;;6.18;3.58;;;;;;;;;;6247169;22;20380;-63
2023/08/09 05:04:45;;;;;;;4.93;3.63;;;;;;;;;;6274799;22;20051;-62
2023/08/09 05:07:11;;;;;;;5.78;3.90;;;;;;;;;;6274349;22;20019;-62
2023/08/09 05:09:37;;;;;;;5.20;3.70;;;;;;;;;;6274960;22;20026;-63
2023/08/09 05:12:03;;;;;;;5.40;4.00;;;;;;;;;;6274449;22;20019;-65
2023/08/09 05:14:29;;;;;;;7.25;4.43;;;;;;;;;;6275063;22;20027;-62
2023/08/09 05:16:55;;;;;;;7.05;4.75;;;;;;;;;;6274468;22;20015;-62
2023/08/09 05:19:22;;;;;;;7.72;4.18;;;;;;;;;;6275556;22;20411;-62
2023/08/09 05:21:48;;;;;;;5.40;4.22;;;;;;;;;;6276990;22;20041;-62
2023/08/09 05:24:14;;;;;;;7.53;4.03;;;;;;;;;;6223576;22;20023;-62
2023/08/09 05:26:41;;;;;;;8.85;4.35;;;;;;;;;;6249430;22;20057;-62
2023/08/09 05:29:07;;;;;;;8.63;4.90;;;;;;;;;;6276413;22;20020;-64
2023/08/09 05:31:33;;;;;;;5.80;3.85;;;;;;;;;;6249058;22;20054;-62
2023/08/09 05:33:59;;;;;;;6.25;4.20;;;;;;;;;;6276118;22;20024;-62
2023/08/09 05:36:26;;;;;;;5.40;3.90;;;;;;;;;;6249052;22;20066;-62
2023/08/09 05:38:52;;;;;;;7.68;3.67;;;;;;;;;;6249279;22;20057;-63
2023/08/09 05:41:18;;;;;;;8.93;4.03;;;;;;;;;;6249222;22;20020;-62
2023/08/09 05:43:44;;;;;;;8.40;4.00;;;;;;;;;;6276645;22;20061;-61
2023/08/09 05:46:10;;;;;;;9.35;3.92;;;;;;;;;;6248616;22;20380;-63
2023/08/09 05:48:37;;;;;;;8.23;4.07;;;;;;;;;;6249538;22;20114;-66
2023/08/09 05:51:04;;;;;;;9.38;3.60;;;;;;;;;;6248867;22;20024;-67
2023/08/09 05:53:31;;;;;;;7.28;3.58;;;;;;;;;;6276572;22;20023;-66
2023/08/09 05:55:57;;;;;;;4.90;3.40;;;;;;;;;;6276324;22;20027;-66
2023/08/09 05:58:23;;;;;;;3.95;2.90;;;;;;;;;;6223586;22;20055;-66
2023/08/09 06:00:49;;;;;;;4.38;3.63;;;;;;;;;;6274523;22;20333;-66
2023/08/09 06:03:16;;;;;;;5.82;3.72;;;;;;;;;;6275279;22;20059;-66
2023/08/09 06:05:43;;;;;;;3.72;2.78;;;;;;;;;;6223586;22;20019;-66
2023/08/09 06:08:09;;;;;;;7.70;3.15;;;;;;;;;;6223543;22;20063;-66
2023/08/09 06:10:35;;;;;;;8.38;3.42;;;;;;;;;;6276288;22;20020;-66
2023/08/09 06:13:01;;;;;;;7.97;3.72;;;;;;;;;;6248485;22;20024;-66
2023/08/09 06:15:27;;;;;;;6.90;2.90;;;;;;;;;;6275891;22;20015;-66
2023/08/09 06:17:53;;;;;;;7.82;3.53;;;;;;;;;;6275255;22;20512;-66
2023/08/09 06:20:21;;;;;;;4.53;3.47;;;;;;;;;;6276085;22;20015;-66
2023/08/09 06:22:47;;;;;;;4.85;2.53;;;;;;;;;;6249195;22;20054;-66
2023/08/09 06:25:14;;;;;;;6.60;2.28;;;;;;;;;;6274377;22;20322;-66
2023/08/09 06:27:40;;;;;;;4.90;2.08;;;;;;;;;;6276281;22;20071;-66
2023/08/09 06:30:06;;;;;;;8.07;2.20;;;;;;;;;;6275093;22;20408;-67
2023/08/09 06:32:33;;;;;;;3.00;1.90;;;;;;;;;;6223287;22;20019;-66
2023/08/09 06:34:59;;;;;;;6.22;2.00;;;;;;;;;;6248283;22;20099;-69
2023/08/09 06:37:25;;;;;;;5.93;2.10;;;;;;;;;;6275457;22;20069;-70
2023/08/09 06:39:51;;;;;;;4.45;2.10;;;;;;;;;;6275467;22;20020;-69
2023/08/09 06:42:17;;;;;;;4.10;1.80;;;;;;;;;;6248033;22;20076;-69
2023/08/09 06:44:43;;;;;;;3.53;1.90;;;;;;;;;;6248552;22;20016;-69
2023/08/09 06:47:11;;;;;;;5.63;1.60;;;;;;;;;;6275624;22;20012;-69
2023/08/09 06:49:37;;;;;;;3.50;1.35;;;;;;;;;;6248472;22;20015;-69
2023/08/09 06:52:03;;;;;;;4.68;1.38;;;;;;;;;;6274645;22;20444;-69
2023/08/09 06:54:29;;;;;;;4.07;1.50;;;;;;;;;;6275379;22;20031;-69
2023/08/09 06:56:55;;;;;;;4.65;1.45;;;;;;;;;;6275505;22;20057;-69
2023/08/09 06:59:21;;;;;;;7.47;1.95;;;;;;;;;;6275068;22;20417;-70
2023/08/09 07:01:50;;;;;;;3.45;1.20;;;17.70;99.90;;;;;;6248395;22;20030;-69
2023/08/09 07:04:16;;;;;;;4.07;1.10;;;;;;;;;;6274764;22;20024;-69
2023/08/09 07:06:42;;;;;;;4.78;1.00;;;;;;;;;;6275190;22;20522;-69
2023/08/09 07:09:11;;;;;;;2.88;1.30;;;18.10;99.90;;;;;;6247919;22;20015;-69
2023/08/09 07:11:37;;;;;;;3.72;1.05;;;;;;;;;;6275727;22;20026;-69
2023/08/09 07:14:03;;;;;;;4.00;1.10;;;;;;;;;;6247621;22;20051;-69
2023/08/09 07:16:28;;;;;;;6.35;1.20;;;18.90;99.90;;;;;;6275044;22;20016;-69
2023/08/09 07:18:54;;;;;;;5.88;1.50;;;18.60;99.90;;;;;;6247709;22;20086;-70
2023/08/09 07:21:20;;;;;;;2.95;1.40;;;;;;;;;;6248328;22;20051;-70
2023/08/09 07:23:46;;;;;;;2.30;1.10;;;;;;;;;;6275150;22;20019;-68
2023/08/09 07:26:12;;;;;;;2.03;1.05;;;18.80;99.90;;;;;;6275095;22;20023;-65
2023/08/09 07:28:38;;;;;;;2.75;1.10;;;;;;;;;;6275142;22;20016;-66
2023/08/09 07:31:04;;;;;;;4.85;1.20;;;;;;;;;;6221452;22;20016;-66
2023/08/09 07:33:30;;;;;;;2.88;1.05;;;19.10;99.90;;;;;;6248756;22;20031;-66
2023/08/09 07:35:56;;;;;;;2.67;1.00;;;;;;;;;;6247529;22;20016;-67
2023/08/09 07:38:22;;;;;;;3.22;1.20;;;;;;;;;;6275178;22;20062;-66
2023/08/09 07:40:48;;;;;;;2.80;1.23;;;;;;;;;;6275515;22;20020;-66
2023/08/09 07:43:13;;;;;;;5.15;1.33;;;19.60;99.90;;;;;;6247752;22;20024;-66
2023/08/09 07:45:42;;;;;;;3.30;1.33;;;19.80;99.90;;;;;;6247382;22;20022;-66
2023/08/09 07:48:08;;;;;;;3.15;0.95;;;19.70;99.90;;;;;;6247993;22;20020;-66
2023/08/09 07:50:33;;;;;;;3.95;1.25;;;19.90;99.90;;;;;;6275482;22;20270;-66
2023/08/09 07:52:59;;;;;;;3.67;1.00;;;;;;;;;;6275386;22;20459;-66
2023/08/09 07:55:26;;;;;;;4.68;1.17;;;;;;;;;;6274863;22;20059;-66
2023/08/09 07:57:52;;;;;;;2.58;1.00;;;19.90;99.90;;;;;;6274442;22;20023;-67
2023/08/09 08:00:18;;;;;;;4.38;1.15;;;20.00;99.90;;;;;;6274882;22;20011;-66
2023/08/09 08:02:45;;;;;;;4.70;1.40;;;;;;;;;;6274849;22;20035;-67
2023/08/09 08:05:15;;;;;;;3.45;0.90;;;20.00;99.90;;;;;;6222037;22;20359;-66
2023/08/09 08:07:42;;;;;;;2.25;1.05;;;20.00;99.90;;;;;;6248060;22;20034;-66
2023/08/09 08:10:09;;;;;;;6.55;2.05;;;20.00;99.90;;;;;;6274361;22;20417;-66
2023/08/09 08:12:38;;;;;;;2.13;0.70;;;20.00;99.90;;;;;;6222446;22;20051;-66
2023/08/09 08:15:06;;;;;;;3.58;0.85;;;20.10;99.90;;;;;;6274547;22;20053;-67
2023/08/09 08:17:33;;;;;;;3.85;0.90;;;20.20;99.90;;;;;;6222466;22;20072;-67
2023/08/09 08:19:59;;;;;;;1.95;0.60;;;;;;;;;;6222813;22;20321;-66
2023/08/09 08:22:25;;;;;;;5.90;0.90;;;;;;;;;;6221990;22;20026;-67
2023/08/09 08:24:51;;;;;;;2.70;0.90;;;;;;;;;;6220645;22;20023;-66
2023/08/09 08:27:17;;;;;;;2.53;0.70;;;;;;;;;;6273876;22;20043;-67
2023/08/09 08:29:43;;;;;;;2.28;0.77;;;20.60;99.90;;;;;;6274896;22;20440;-66
2023/08/09 08:32:10;;;;;;;4.88;0.77;;;20.50;99.90;;;;;;6273788;22;20055;-67
2023/08/09 08:34:37;;;;;;;3.13;0.80;;;20.70;99.90;;;;;;6222283;22;20023;-66
2023/08/09 08:37:04;;;;;;;2.83;0.93;;;20.60;99.90;;;;;;6247383;22;20016;-68
2023/08/09 08:39:35;;;;;;;2.90;0.80;;;20.50;99.90;;;;;;6272990;22;20047;-69
2023/08/09 08:42:01;;;;;;;6.32;0.85;;;;;;;;;;6222348;22;20031;-69
2023/08/09 08:44:27;;;;;;;3.70;0.80;;;21.10;99.90;;;;;;6274803;22;20015;-69
2023/08/09 08:46:53;;;;;;;2.97;1.25;;;21.10;99.90;;;;;;6222215;22;20024;-69
2023/08/09 08:49:23;;;;;;;3.40;0.98;;;21.30;99.90;;;;;;6274845;22;20019;-69
2023/08/09 08:51:54;;;;;;;3.22;0.63;;;21.40;99.90;;;;;;6248014;22;20020;-68
2023/08/09 08:54:19;;;;;;;2.72;0.70;;;21.30;99.90;;;;;;6222946;22;20015;-68
2023/08/09 08:56:49;;;;;;;5.40;0.90;;;21.30;99.90;;;;;;6276884;22;20027;-69
2023/08/09 08:59:16;;;;;;;2.40;0.88;;;21.40;99.90;;;;;;6276787;22;20020;-70
2023/08/09 09:01:45;;;;;;;4.35;0.80;;;21.30;99.90;;;;;;6249871;22;20020;-67
2023/08/09 09:04:12;;;;;;;2.25;0.75;;;;;;;;;;6224419;22;20023;-68
2023/08/09 09:06:37;;;;;;;2.80;0.70;;;21.40;99.90;;;;;;6249927;22;20095;-68
2023/08/09 09:09:15;;;;;;;3.75;0.90;;;21.50;99.90;;;;;;6249033;22;20043;-67
2023/08/09 09:11:43;;;;;;;1.67;0.60;;;21.60;99.90;;;;;;6277009;22;20086;-69
2023/08/09 09:14:14;;;;;;;3.20;0.80;;;21.40;99.90;;;;;;6249231;22;20015;-69
2023/08/09 09:16:41;;;;;;;2.33;1.23;;;21.30;99.90;;;;;;6276924;22;20066;-69
2023/08/09 09:19:08;;;;;;;3.58;0.90;;;21.40;99.90;;;;;;6249396;22;20089;-68
2023/08/09 09:21:35;;;;;;;3.67;0.70;;;21.10;99.90;;;;;;6249896;22;20030;-69
2023/08/09 09:24:08;;;;;;;3.38;1.00;;;21.10;99.90;;;;;;6223990;22;20027;-68
2023/08/09 09:26:37;;;;;;;1.83;0.70;;;21.10;99.90;;;;;;6249350;22;20450;-69
2023/08/09 09:29:07;;;;;;;1.52;0.68;;;20.80;99.90;;;;;;6249402;22;20020;-66
2023/08/09 09:31:39;;;;;;;1.38;0.70;;;21.10;99.90;;;;;;6223923;22;20362;-68
2023/08/09 09:34:11;;;;;;;2.20;0.77;;;21.30;99.90;;;;;;6249609;22;20095;-68
2023/08/09 09:36:42;;;;;;;1.38;0.57;;;21.10;99.90;;;;;;6276942;22;20027;-68
2023/08/09 09:39:12;;;;;;;2.88;0.80;;;21.30;99.90;;;;;;6275808;22;20047;-69
2023/08/09 09:41:38;;;;;;;2.95;0.82;;;21.40;99.90;;;;;;6276945;22;20023;-68
2023/08/09 09:44:04;;;;;;;1.40;0.77;;;21.30;99.90;;;;;;6276808;22;20022;-68
2023/08/09 09:46:31;;;;;;;1.10;0.50;;;21.30;99.90;;;;;;6277090;22;20016;-69
2023/08/09 09:49:02;;;;;;;3.75;0.70;;;21.30;99.90;;;;;;6249797;22;20341;-68
2023/08/09 09:51:28;;;;;;;3.80;0.88;;;;;;;;;;6276602;22;20116;-68
2023/08/09 09:53:55;;;;;;;1.65;0.68;;;21.60;99.90;;;;;;6249034;22;20026;-68
2023/08/09 09:56:21;;;;;;;2.80;0.70;;;;;;;;;;6249000;22;20451;-68
2023/08/09 09:58:47;;;;;;;3.90;0.80;;;;;;;;;;6249203;22;20023;-68
2023/08/09 10:01:18;;;;;;;1.17;0.60;;;21.50;99.90;;;;;;6275051;22;20016;-69
2023/08/09 10:03:44;;;;;;;2.15;0.70;;;21.50;99.90;;;;;;6248607;22;20016;-69
2023/08/09 10:06:19;;;;;;;2.80;0.65;;;21.70;99.90;;;;;;6223308;22;20069;-68
2023/08/09 10:08:45;;;;;;;1.85;0.82;;;;;;;;;;6249089;22;20367;-65
2023/08/09 10:11:11;;;;;;;3.63;0.90;;;;;;;;;;6275235;22;20022;-65
2023/08/09 10:13:40;;;;;;;3.95;0.70;;;21.10;99.90;;;;;;6275752;22;20023;-64
2023/08/09 10:16:10;;;;;;;4.50;0.93;;;21.10;99.90;;;;;;6223552;22;20078;-65
2023/08/09 10:18:39;;;;;;;;;;;21.10;99.90;;;;;;6249393;22;20015;-64
2023/08/09 10:21:06;;;;;;;2.30;0.70;;;20.90;99.90;;;;;;6275232;22;19919;-65
2023/08/09 10:23:32;;;;;;;2.95;0.60;;;;;;;;;;6247747;22;20030;-65
2023/08/09 10:25:59;;;;;;;2.08;0.80;;;;;;;;;;6248534;22;20368;-65
2023/08/09 10:28:45;;;;;;;3.63;0.82;;;;;;;;;;6223235;22;20050;-65
2023/08/09 10:31:13;;;;;;;3.42;1.20;;;21.20;99.90;;;;;;6217323;23;20380;-64
2023/08/09 10:34:02;;;;;;;2.40;1.00;;;21.40;99.90;;;;;;6244096;23;20099;-66
2023/08/09 10:36:32;;;;;;;3.43;1.30;;;21.40;99.90;;;;;;6244736;23;20529;-65
2023/08/09 10:38:58;;;;;;;;;;;21.50;99.90;;;;;;6244414;23;20016;-65
2023/08/09 10:41:25;;;;;;;4.93;0.90;;;21.60;99.90;;;;;;6244754;23;20210;-65
2023/08/09 10:44:01;;;;;;;3.47;0.90;;;21.60;99.90;;;;;;6218660;23;20461;-66
2023/08/09 10:46:27;;;;;;;9.63;2.45;;;;;;;;;;6243575;23;20020;-66
2023/08/09 10:48:58;;;;;;;4.53;0.98;;;21.50;99.90;;;;;;6245416;23;20058;-65
2023/08/09 10:51:25;;;;;;;3.38;1.17;;;22.20;99.90;;;;;;6217365;23;20027;-65
2023/08/09 10:53:57;;;;;;;4.00;1.20;;;22.10;99.90;;;;;;6245077;22;20013;-64
2023/08/09 10:56:35;;;;;;;3.30;0.90;;;22.10;99.90;;;;;;6217736;23;20453;-65
2023/08/09 10:59:06;;;;;;;2.70;1.00;;;21.90;99.90;;;;;;6243744;23;20075;-65
2023/08/09 11:01:36;;;;;;;4.97;1.30;;;21.60;99.90;;;;;;6245306;22;20016;-66
2023/08/09 11:04:10;;;;;;;2.22;0.90;;;21.50;99.90;;;;;;6242735;23;20078;-69
2023/08/09 11:06:40;;;;;;;3.88;1.30;;;22.10;99.90;;;;;;6244468;22;20012;-64
2023/08/09 11:09:12;;;;;;;5.55;1.20;;;22.10;99.90;;;;;;6243540;23;20027;-65
2023/08/09 11:11:40;;;;;;;3.45;1.20;;;22.00;99.90;;;;;;6242951;23;20016;-64
2023/08/09 11:14:06;;;;;;;4.20;1.25;;;;;;;;;;6242453;23;20444;-64
2023/08/09 11:16:32;;;;;;;2.67;1.20;;;22.00;99.90;;;;;;6244842;23;20027;-66
2023/08/09 11:19:10;;;;;;;3.05;1.23;;;21.90;99.90;;;;;;6243111;23;20008;-66
2023/08/09 11:21:43;;;;;;;5.90;1.25;;;21.90;99.90;;;;;;6217630;23;20350;-67
2023/08/09 11:24:10;;;;;;;2.95;1.33;;;21.70;99.90;;;;;;6243399;23;20020;-66
2023/08/09 11:26:38;;;;;;;3.88;1.20;;;21.50;99.90;;;;;;6242443;23;20116;-64
2023/08/09 11:29:05;;;;;;;4.97;1.08;;;21.90;99.90;;;;;;6242713;23;20334;-63
2023/08/09 11:31:45;;;;;;;4.40;1.13;;;21.90;99.90;;;;;;6255153;22;20030;-63
2023/08/09 11:34:13;;;;;;;5.13;1.13;;;22.40;99.90;;;;;;6274742;22;20053;-64
2023/08/09 11:36:40;;;;;;;4.25;1.58;;;22.00;99.90;;;;;;6274777;22;20012;-63
2023/08/09 11:39:07;;;;;;;3.78;1.40;;;;;;;;;;6274877;22;20087;-64
2023/08/09 11:41:59;;;;;;;4.40;1.33;;;21.90;99.90;;;;;;6274848;22;20022;-65
2023/08/09 11:44:34;;;;;;;2.83;1.15;;;21.60;99.90;;;;;;6240514;22;20046;-63
2023/08/09 11:47:01;;;;;;;6.05;1.50;;;;;;;;;;6274421;22;20016;-61
2023/08/09 11:49:28;;;;;;;15.13;2.80;;;21.80;99.90;;;;;;6247408;22;20046;-65
2023/08/09 11:51:54;;;;;;;2.65;1.08;;;;;;;;;;6275318;22;20011;-63
2023/08/09 11:54:21;;;;;;;4.85;1.08;;;;;;;;;;6274514;22;20158;-63
2023/08/09 11:56:48;;;;;;;2.28;1.10;;;;;;;;;;6222866;22;20046;-63
2023/08/09 11:59:18;;;;;;;7.40;1.80;;;21.50;99.90;;;;;;6244926;22;20012;-63
2023/08/09 12:01:49;;;;;;;7.40;1.52;;;21.40;99.90;;;;;;6220148;22;20023;-63
2023/08/09 12:04:19;;;;;;;5.68;1.35;;;21.40;99.90;;;;;;6271383;22;20024;-64
2023/08/09 12:06:45;;;;;;;;;;;21.60;99.90;;;;;;6246588;22;20024;-63
2023/08/09 12:09:36;;;;;;;32.17;6.30;;;21.50;99.90;;;;;;6246711;22;19919;-63
2023/08/09 12:12:13;;;;;;;4.45;1.10;;;21.90;99.90;;;;;;6273315;22;20023;-68
2023/08/09 12:14:41;;;;;;;6.85;1.65;;;22.40;99.90;;;;;;6220139;22;20016;-65
2023/08/09 12:17:08;;;;;;;3.42;1.20;;;22.50;99.90;;;;;;6272454;22;20066;-64
2023/08/09 12:19:36;;;;;;;23.05;5.95;;;22.60;99.90;;;;;;6247357;22;20368;-63
2023/08/09 12:22:04;;;;;;;4.32;0.90;;;;;;;;;;6245597;22;20453;-68
2023/08/09 12:24:30;;;;;;;13.63;2.25;;;;;;;;;;6247510;22;20024;-65
2023/08/09 12:26:57;;;;;;;3.58;0.90;;;;;;;;;;6275244;22;20023;-65
2023/08/09 12:29:23;;;;;;;6.18;1.30;;;;;;;;;;6247413;22;20020;-64
2023/08/09 12:31:49;;;;;;;3.25;1.02;;;;;;;;;;6273850;22;20015;-64
2023/08/09 12:34:16;;;;;;;7.43;1.00;;;;;;;;;;6274847;22;20095;-64
2023/08/09 12:36:42;;;;;;;2.28;0.82;;;;;;;;;;6274816;22;20020;-64
2023/08/09 12:39:11;;;;;;;2.90;1.00;;;;;;;;;;6247536;22;20020;-64
2023/08/09 12:41:37;;;;;;;5.05;1.13;;;22.00;99.90;;;;;;6274989;22;20314;-65
2023/08/09 12:44:04;;;;;;;4.05;1.70;;;;;;;;;;6247037;22;20012;-65
2023/08/09 12:46:31;;;;;;;3.35;1.00;;;;;;;;;;6247276;22;20069;-63
2023/08/09 12:48:57;;;;;;;4.60;0.95;;;;;;;;;;6248173;22;20045;-66
2023/08/09 12:51:23;;;;;;;5.70;0.98;;;;;;;;;;6246769;22;20024;-64
2023/08/09 12:53:49;;;;;;;3.92;1.10;;;;;;;;;;6275268;22;20020;-63
2023/08/09 12:56:15;;;;;;;3.45;0.90;;;22.60;99.90;;;;;;6274644;22;20054;-64
2023/08/09 12:58:41;;;;;;;4.78;1.13;;;;;;;;;;6247977;22;20012;-63
2023/08/09 13:01:07;;;;;;;5.35;1.00;;;;;;;;;;6196551;22;20094;-63
2023/08/09 13:03:33;;;;;;;2.40;1.15;;;;;;;;;;6246136;22;20468;-66
2023/08/09 13:05:59;;;;;;;5.75;1.02;;;;;;;;;;6247405;22;20023;-64
2023/08/09 13:08:25;;;;;;;3.70;1.10;;;22.40;99.90;;;;;;6274503;22;20011;-63
2023/08/09 13:10:51;;;;;;;2.45;1.02;;;;;;;;;;6247656;22;20077;-64
2023/08/09 13:13:17;;;;;;;3.08;0.90;;;;;;;;;;6246261;22;20019;-64
2023/08/09 13:15:43;;;;;;;4.25;1.08;;;;;;;;;;6273348;22;20445;-69
2023/08/09 13:18:09;;;;;;;3.03;0.85;;;;;;;;;;6274222;22;20512;-69
2023/08/09 13:20:36;;;;;;;4.32;1.23;;;;;;;;;;6246339;22;20020;-68
2023/08/09 13:23:02;;;;;;;4.00;0.95;;;;;;;;;;6274585;22;20083;-67
2023/08/09 13:25:28;;;;;;;3.88;0.93;;;;;;;;;;6274957;22;20019;-69
2023/08/09 13:27:54;;;;;;;5.13;1.33;;;;;;;;;;6274972;22;20016;-69
2023/08/09 13:30:20;;;;;;;3.92;0.90;;;;;;;;;;6272839;22;20047;-69
2023/08/09 13:32:47;;;;;;;3.45;0.90;;;22.30;99.90;;;;;;6274013;22;20024;-69
2023/08/09 13:35:13;;;;;;;4.90;0.90;;;;;;;;;;6221686;22;20384;-69
2023/08/09 13:37:39;;;;;;;2.88;0.65;;;22.30;99.90;;;;;;6274987;22;20100;-69
2023/08/09 13:40:09;;;;;;;6.72;1.20;;;22.30;99.90;;;;;;6248596;22;20019;-69
2023/08/09 13:42:35;;;;;;;4.53;1.00;;;;;;;;;;6249286;22;20016;-69
2023/08/09 13:45:02;;;;;;;4.78;1.23;;;;;;;;;;6249330;22;20055;-67
2023/08/09 13:47:27;;;;;;;1.83;0.80;;;21.80;99.90;;;;;;6249765;22;20055;-70
2023/08/09 13:49:53;;;;;;;3.67;0.90;;;;;;;;;;6249782;22;20016;-68
2023/08/09 13:52:19;;;;;;;4.22;1.05;;;;;;;;;;6275669;22;20054;-68
2023/08/09 13:54:46;;;;;;;3.42;1.33;;;;;;;;;;6276281;22;20476;-68
2023/08/09 13:57:12;;;;;;;4.03;1.30;;;;;;;;;;6249271;22;20028;-68
2023/08/09 13:59:40;;;;;;;3.17;1.00;;;;;;;;;;6249067;22;20098;-68
2023/08/09 14:02:07;;;;;;;4.82;1.63;;;;;;;;;;6223382;22;20016;-68
2023/08/09 14:04:33;;;;;;;3.70;1.00;;;;;;;;;;6248690;22;20023;-68
2023/08/09 14:07:02;;;;;;;4.72;1.20;;;;;;;;;;6223956;22;20065;-68